createdAt,value
2022-09-22T00:01:26.954Z,15.30
2022-09-22T00:04:00.276Z,15.40
2022-09-22T00:06:30.261Z,15.00
2022-09-22T00:09:00.705Z,15.20
2022-09-22T00:11:36.009Z,15.20
2022-09-22T00:14:10.713Z,15.10
2022-09-22T00:16:41.962Z,15.00
2022-09-22T00:19:09.840Z,15.20
2022-09-22T00:21:37.207Z,14.70
2022-09-22T00:24:07.284Z,14.90
2022-09-22T00:26:35.670Z,15.10
2022-09-22T00:29:03.479Z,14.90
2022-09-22T00:31:30.738Z,14.90
2022-09-22T00:33:58.415Z,14.70
2022-09-22T00:36:26.962Z,14.50
2022-09-22T00:38:56.362Z,14.40
2022-09-22T00:41:35.866Z,14.30
2022-09-22T00:44:38.815Z,14.10
2022-09-22T00:47:16.252Z,13.80
2022-09-22T00:50:17.662Z,14.20
2022-09-22T00:53:07.073Z,14.10
2022-09-22T00:55:53.518Z,13.90
2022-09-22T00:58:27.195Z,13.80
2022-09-22T01:00:54.478Z,13.90
2022-09-22T01:03:27.580Z,14.30
2022-09-22T01:06:36.414Z,14.10
2022-09-22T01:09:28.806Z,14.20
2022-09-22T01:12:28.739Z,14.40
2022-09-22T01:15:32.534Z,14.40
2022-09-22T01:18:30.363Z,14.10
2022-09-22T01:21:30.233Z,14.20
2022-09-22T01:24:43.734Z,14.40
2022-09-22T01:28:13.594Z,14.50
2022-09-22T01:31:19.595Z,14.60
2022-09-22T01:33:55.204Z,14.50
2022-09-22T01:36:35.732Z,14.80
2022-09-22T01:39:15.863Z,14.90
2022-09-22T01:41:51.514Z,14.90
2022-09-22T01:45:41.907Z,14.70
2022-09-22T01:48:40.544Z,14.60
2022-09-22T01:51:40.284Z,14.60
2022-09-22T01:54:41.734Z,14.40
2022-09-22T01:57:30.414Z,14.10
2022-09-22T02:00:03.472Z,14.40
2022-09-22T02:02:42.768Z,14.10
2022-09-22T02:05:17.049Z,14.40
2022-09-22T02:07:48.647Z,14.20
2022-09-22T02:10:18.697Z,13.90
2022-09-22T02:12:47.513Z,13.80
2022-09-22T02:15:34.986Z,13.90
2022-09-22T02:18:07.652Z,13.80
2022-09-22T02:20:35.038Z,14.10
2022-09-22T02:23:02.151Z,13.80
2022-09-22T02:25:29.638Z,13.90
2022-09-22T02:27:57.078Z,13.60
2022-09-22T02:30:24.733Z,13.60
2022-09-22T02:32:54.077Z,13.50
2022-09-22T02:35:21.681Z,13.50
2022-09-22T02:38:03.781Z,13.10
2022-09-22T02:40:44.129Z,13.60
2022-09-22T02:43:35.595Z,12.90
2022-09-22T02:46:09.611Z,13.10
2022-09-22T02:48:44.057Z,12.60
2022-09-22T02:51:11.607Z,12.80
2022-09-22T02:53:38.748Z,12.90
2022-09-22T02:56:06.122Z,12.90
2022-09-22T02:58:33.422Z,12.80
2022-09-22T03:01:00.562Z,12.70
2022-09-22T03:03:27.738Z,12.60
2022-09-22T03:05:54.856Z,12.60
2022-09-22T03:08:21.999Z,12.60
2022-09-22T03:10:49.161Z,12.80
2022-09-22T03:13:17.409Z,13.10
2022-09-22T03:15:45.783Z,12.90
2022-09-22T03:18:13.772Z,12.60
2022-09-22T03:20:40.993Z,12.40
2022-09-22T03:23:08.207Z,12.30
2022-09-22T03:25:35.615Z,12.50
2022-09-22T03:28:02.961Z,12.50
2022-09-22T03:30:30.151Z,12.90
2022-09-22T03:32:57.637Z,12.50
2022-09-22T03:35:24.814Z,12.60
2022-09-22T03:37:51.989Z,12.60
2022-09-22T03:40:19.190Z,12.40
2022-09-22T03:42:46.385Z,12.10
2022-09-22T03:45:14.982Z,12.50
2022-09-22T03:47:42.369Z,12.50
2022-09-22T03:50:10.138Z,12.30
2022-09-22T03:52:37.383Z,12.60
2022-09-22T03:55:04.821Z,12.60
2022-09-22T03:57:31.989Z,12.80
2022-09-22T03:59:59.213Z,12.90
2022-09-22T04:02:26.455Z,12.50
2022-09-22T04:04:53.735Z,12.30
2022-09-22T04:07:20.865Z,12.30
2022-09-22T04:09:48.020Z,12.50
2022-09-22T04:12:15.148Z,12.40
2022-09-22T04:14:42.299Z,12.20
2022-09-22T04:17:09.439Z,12.30
2022-09-22T04:19:36.592Z,12.10
2022-09-22T04:22:04.312Z,12.20
2022-09-22T04:24:31.622Z,12.60
2022-09-22T04:29:45.948Z,11.70
2022-09-22T04:32:14.046Z,12.10
2022-09-22T04:34:41.278Z,11.70
2022-09-22T04:37:08.787Z,12.20
2022-09-22T04:39:36.343Z,12.30
2022-09-22T04:42:04.164Z,12.20
2022-09-22T04:44:35.018Z,12.10
2022-09-22T04:47:02.984Z,12.10
2022-09-22T04:49:30.840Z,12.00
2022-09-22T04:51:58.044Z,12.10
2022-09-22T04:54:25.153Z,12.10
2022-09-22T04:56:52.317Z,12.40
2022-09-22T04:59:19.479Z,12.20
2022-09-22T05:01:46.662Z,11.90
2022-09-22T05:04:14.262Z,12.20
2022-09-22T05:06:42.089Z,11.90
2022-09-22T05:09:09.269Z,12.00
2022-09-22T05:11:36.588Z,12.00
2022-09-22T05:14:03.777Z,11.90
2022-09-22T05:16:32.062Z,12.00
2022-09-22T05:18:59.419Z,12.40
2022-09-22T05:21:26.583Z,12.10
2022-09-22T05:23:55.139Z,11.80
2022-09-22T05:26:22.458Z,11.90
2022-09-22T05:28:51.214Z,12.40
2022-09-22T05:31:18.663Z,12.00
2022-09-22T05:33:46.256Z,11.90
2022-09-22T05:36:13.390Z,11.90
2022-09-22T05:38:40.730Z,11.90
2022-09-22T05:41:07.885Z,11.80
2022-09-22T05:43:35.161Z,11.90
2022-09-22T05:46:02.323Z,12.00
2022-09-22T05:48:31.474Z,12.00
2022-09-22T05:50:58.934Z,11.80
2022-09-22T05:53:26.087Z,11.90
2022-09-22T05:55:53.741Z,12.00
2022-09-22T05:58:20.926Z,12.30
2022-09-22T06:00:48.129Z,12.20
2022-09-22T06:03:15.440Z,12.60
2022-09-22T06:05:43.935Z,12.40
2022-09-22T06:08:11.169Z,12.30
2022-09-22T06:10:39.119Z,12.40
2022-09-22T06:13:08.018Z,12.20
2022-09-22T06:15:36.142Z,12.70
2022-09-22T06:18:11.862Z,12.90
2022-09-22T06:20:41.955Z,13.60
2022-09-22T06:23:09.158Z,13.60
2022-09-22T06:25:36.325Z,14.20
2022-09-22T06:28:07.687Z,14.40
2022-09-22T06:30:36.733Z,14.60
2022-09-22T06:33:03.901Z,14.40
2022-09-22T06:35:37.431Z,14.70
2022-09-22T06:38:09.623Z,15.40
2022-09-22T06:40:36.904Z,15.50
2022-09-22T06:43:12.751Z,15.40
2022-09-22T06:45:40.827Z,15.30
2022-09-22T06:48:10.455Z,15.60
2022-09-22T06:50:40.627Z,16.20
2022-09-22T06:53:11.163Z,15.90
2022-09-22T06:55:41.462Z,16.40
2022-09-22T06:58:09.979Z,17.00
2022-09-22T07:00:37.306Z,16.30
2022-09-22T07:03:08.512Z,16.60
2022-09-22T07:05:36.952Z,16.80
2022-09-22T07:08:08.724Z,17.10
2022-09-22T07:10:38.680Z,17.00
2022-09-22T07:13:06.207Z,17.30
2022-09-22T07:15:34.820Z,17.50
2022-09-22T07:18:02.947Z,17.00
2022-09-22T07:20:30.349Z,16.40
2022-09-22T07:23:00.638Z,16.70
2022-09-22T07:25:28.950Z,17.40
2022-09-22T07:28:04.963Z,17.20
2022-09-22T07:30:36.134Z,17.30
2022-09-22T07:33:03.420Z,18.10
2022-09-22T07:35:31.639Z,17.90
2022-09-22T07:38:03.526Z,17.70
2022-09-22T07:40:31.169Z,17.80
2022-09-22T07:42:58.346Z,17.90
2022-09-22T07:45:25.490Z,17.80
2022-09-22T07:48:11.339Z,17.80
2022-09-22T07:50:38.479Z,18.10
2022-09-22T07:53:05.735Z,17.60
2022-09-22T07:55:34.614Z,17.20
2022-09-22T07:58:01.891Z,17.40
2022-09-22T08:00:33.562Z,17.20
2022-09-22T08:03:01.242Z,17.20
2022-09-22T08:05:29.558Z,17.10
2022-09-22T08:07:58.229Z,17.20
2022-09-22T08:10:26.138Z,17.00
2022-09-22T08:12:57.974Z,17.30
2022-09-22T08:15:27.375Z,17.20
2022-09-22T08:17:58.153Z,17.10
2022-09-22T08:20:28.828Z,17.10
2022-09-22T08:23:01.293Z,17.00
2022-09-22T08:25:28.776Z,16.80
2022-09-22T08:27:55.922Z,16.50
2022-09-22T08:30:23.184Z,16.70
2022-09-22T08:32:50.327Z,16.90
2022-09-22T08:35:18.077Z,17.20
2022-09-22T08:37:45.638Z,17.30
2022-09-22T08:40:19.390Z,17.00
2022-09-22T08:42:46.859Z,16.20
2022-09-22T08:45:30.858Z,16.60
2022-09-22T08:48:25.149Z,16.40
2022-09-22T08:51:14.229Z,16.60
2022-09-22T08:53:46.357Z,16.90
2022-09-22T08:56:29.152Z,16.40
2022-09-22T08:59:22.861Z,17.00
2022-09-22T09:02:02.286Z,16.60
2022-09-22T09:04:42.412Z,16.60
2022-09-22T09:07:33.639Z,17.00
2022-09-22T09:10:21.883Z,17.50
2022-09-22T09:12:59.049Z,17.30
2022-09-22T09:15:33.862Z,17.50
2022-09-22T09:18:07.049Z,17.60
2022-09-22T09:20:44.227Z,17.70
2022-09-22T09:23:21.366Z,17.20
2022-09-22T09:25:52.289Z,17.50
2022-09-22T09:28:42.171Z,17.10
2022-09-22T09:31:14.054Z,17.30
2022-09-22T09:34:03.142Z,17.20
2022-09-22T09:36:38.566Z,17.30
2022-09-22T09:39:21.071Z,17.90
2022-09-22T09:41:49.798Z,17.70
2022-09-22T09:44:25.507Z,17.60
2022-09-22T09:47:02.076Z,17.60
2022-09-22T09:49:29.380Z,17.30
2022-09-22T09:52:02.055Z,17.50
2022-09-22T09:54:29.239Z,17.30
2022-09-22T09:57:13.323Z,17.70
2022-09-22T10:00:00.907Z,18.00
2022-09-22T10:02:47.329Z,18.00
2022-09-22T10:05:17.507Z,18.30
2022-09-22T10:07:47.779Z,18.30
2022-09-22T10:10:30.020Z,18.60
2022-09-22T10:13:05.997Z,18.70
2022-09-22T10:15:38.574Z,18.70
2022-09-22T10:18:37.599Z,18.10
2022-09-22T10:21:24.190Z,18.80
2022-09-22T10:23:57.873Z,18.90
2022-09-22T10:26:29.518Z,18.70
2022-09-22T10:29:14.775Z,19.00
2022-09-22T10:31:42.691Z,19.00
2022-09-22T10:34:32.800Z,18.90
2022-09-22T10:37:01.045Z,19.50
2022-09-22T10:39:33.329Z,19.30
2022-09-22T10:42:01.390Z,19.70
2022-09-22T10:44:40.985Z,20.00
2022-09-22T10:47:42.654Z,19.80
2022-09-22T10:50:35.605Z,20.10
2022-09-22T10:53:15.209Z,20.40
2022-09-22T10:56:04.036Z,21.00
2022-09-22T10:58:39.961Z,20.90
2022-09-22T11:01:30.406Z,20.60
2022-09-22T11:04:08.934Z,21.20
2022-09-22T11:07:23.459Z,20.40
2022-09-22T11:10:19.857Z,20.00
2022-09-22T11:13:20.769Z,20.70
2022-09-22T11:15:59.952Z,21.50
2022-09-22T11:18:53.053Z,21.80
2022-09-22T11:21:47.102Z,22.60
2022-09-22T11:24:32.341Z,22.80
2022-09-22T11:27:02.978Z,22.70
2022-09-22T11:29:30.050Z,22.60
2022-09-22T11:32:18.927Z,22.70
2022-09-22T11:35:12.293Z,23.30
2022-09-22T11:37:49.635Z,22.20
2022-09-22T11:40:19.952Z,22.70
2022-09-22T11:42:53.388Z,23.10
2022-09-22T11:45:23.500Z,23.20
2022-09-22T11:48:33.514Z,23.00
2022-09-22T11:51:20.633Z,22.60
2022-09-22T11:54:21.608Z,22.40
2022-09-22T11:56:52.769Z,22.80
2022-09-22T11:59:51.788Z,22.40
2022-09-22T12:02:29.006Z,21.80
2022-09-22T12:05:08.809Z,21.70
2022-09-22T12:07:50.069Z,21.30
2022-09-22T12:10:35.291Z,21.20
2022-09-22T12:13:04.531Z,21.80
2022-09-22T12:15:36.743Z,21.80
2022-09-22T12:18:24.258Z,21.70
2022-09-22T12:21:05.039Z,22.50
2022-09-22T12:23:41.189Z,22.60
2022-09-22T12:26:11.190Z,22.10
2022-09-22T12:28:45.934Z,22.10
2022-09-22T12:31:15.353Z,22.50
2022-09-22T12:33:51.498Z,23.30
2022-09-22T12:36:29.186Z,23.20
2022-09-22T12:39:26.107Z,23.10
2022-09-22T12:42:20.977Z,23.30
2022-09-22T12:45:19.457Z,23.50
2022-09-22T12:47:51.728Z,24.10
2022-09-22T12:50:36.838Z,24.30
2022-09-22T12:53:38.069Z,23.70
2022-09-22T12:56:58.712Z,24.10
2022-09-22T12:59:52.691Z,24.10
2022-09-22T13:02:33.247Z,24.40
2022-09-22T13:05:02.394Z,24.40
2022-09-22T13:07:57.284Z,24.90
2022-09-22T13:19:23.612Z,24.40
2022-09-22T13:23:08.654Z,25.40
2022-09-22T13:29:25.120Z,24.70
2022-09-22T13:31:56.985Z,25.00
2022-09-22T13:34:54.725Z,25.00
2022-09-22T13:38:00.522Z,25.00
2022-09-22T13:40:35.690Z,24.50
2022-09-22T13:43:06.660Z,24.30
2022-09-22T13:45:33.986Z,24.40
2022-09-22T13:48:11.390Z,24.60
2022-09-22T13:50:41.891Z,24.70
2022-09-22T13:53:09.501Z,24.60
2022-09-22T13:55:37.436Z,24.20
2022-09-22T13:58:06.826Z,24.70
2022-09-22T14:01:08.620Z,24.80
2022-09-22T14:03:37.117Z,25.10
2022-09-22T14:06:05.957Z,25.70
2022-09-22T14:08:33.285Z,25.80
2022-09-22T14:11:02.095Z,25.10
2022-09-22T14:13:54.426Z,25.00
2022-09-22T14:16:45.932Z,24.70
2022-09-22T14:19:22.803Z,24.70
2022-09-22T14:21:56.987Z,24.60
2022-09-22T14:24:25.158Z,25.00
2022-09-22T14:27:04.021Z,25.20
2022-09-22T14:29:39.162Z,25.10
2022-09-22T14:32:20.365Z,25.20
2022-09-22T14:34:49.860Z,24.60
2022-09-22T14:37:35.872Z,25.00
2022-09-22T14:40:07.409Z,24.60
2022-09-22T14:42:34.999Z,24.70
2022-09-22T14:45:11.562Z,25.20
2022-09-22T14:47:40.624Z,25.10
2022-09-22T14:50:12.571Z,25.00
2022-09-22T14:52:54.363Z,25.50
2022-09-22T14:55:36.384Z,25.80
2022-09-22T14:58:13.199Z,25.40
2022-09-22T15:01:34.867Z,24.40
2022-09-22T15:04:18.064Z,25.10
2022-09-22T15:06:48.696Z,25.30
2022-09-22T15:09:31.137Z,25.20
2022-09-22T15:12:02.025Z,25.20
2022-09-22T15:14:40.733Z,24.80
2022-09-22T15:17:58.895Z,24.40
2022-09-22T15:20:32.632Z,25.30
2022-09-22T15:22:59.850Z,25.50
2022-09-22T15:25:27.139Z,25.70
2022-09-22T15:27:54.286Z,25.20
2022-09-22T15:30:22.606Z,25.60
2022-09-22T15:32:50.113Z,25.20
2022-09-22T15:35:18.381Z,25.00
2022-09-22T15:37:46.663Z,24.80
2022-09-22T15:40:19.247Z,24.20
2022-09-22T15:43:11.339Z,24.80
2022-09-22T15:45:37.163Z,24.90
2022-09-22T15:48:04.406Z,24.60
2022-09-22T15:50:32.331Z,24.50
2022-09-22T15:52:59.467Z,24.10
2022-09-22T15:55:26.654Z,24.30
2022-09-22T15:57:56.987Z,24.90
2022-09-22T16:00:28.413Z,25.00
2022-09-22T16:02:55.771Z,24.90
2022-09-22T16:05:22.952Z,24.60
2022-09-22T16:07:51.631Z,24.20
2022-09-22T16:10:22.665Z,24.80
2022-09-22T16:12:49.978Z,23.70
2022-09-22T16:15:17.244Z,24.50
2022-09-22T16:17:46.211Z,24.80
2022-09-22T16:20:15.981Z,24.40
2022-09-22T16:22:45.325Z,23.50
2022-09-22T16:25:15.259Z,23.00
2022-09-22T16:27:43.002Z,23.00
2022-09-22T16:30:10.469Z,22.90
2022-09-22T16:32:37.597Z,22.70
2022-09-22T16:35:05.370Z,22.60
2022-09-22T16:37:32.497Z,22.60
2022-09-22T16:39:59.620Z,22.60
2022-09-22T16:42:26.762Z,22.30
2022-09-22T16:44:53.935Z,22.00
2022-09-22T16:47:22.939Z,21.70
2022-09-22T16:49:51.470Z,22.00
2022-09-22T16:52:23.023Z,21.70
2022-09-22T16:54:50.497Z,21.80
2022-09-22T16:57:17.623Z,21.60
2022-09-22T16:59:44.941Z,21.70
2022-09-22T17:02:12.119Z,21.20
2022-09-22T17:04:39.721Z,21.10
2022-09-22T17:07:07.068Z,20.90
2022-09-22T17:09:34.211Z,21.20
2022-09-22T17:12:05.767Z,21.50
2022-09-22T17:14:32.974Z,21.40
2022-09-22T17:17:06.367Z,21.30
2022-09-22T17:19:33.967Z,21.20
2022-09-22T17:22:01.223Z,21.00
2022-09-22T17:24:29.021Z,20.90
2022-09-22T17:26:58.731Z,20.60
2022-09-22T17:29:27.963Z,20.00
2022-09-22T17:31:57.366Z,20.10
2022-09-22T17:34:25.849Z,20.20
2022-09-22T17:36:55.267Z,19.70
2022-09-22T17:39:24.014Z,19.40
2022-09-22T17:41:51.361Z,19.40
2022-09-22T17:44:22.752Z,19.10
2022-09-22T17:47:10.388Z,19.10
2022-09-22T17:49:56.999Z,18.60
2022-09-22T17:52:33.294Z,18.40
2022-09-22T17:55:09.083Z,18.10
2022-09-22T17:57:41.683Z,18.20
2022-09-22T18:00:21.191Z,18.00
2022-09-22T18:02:50.183Z,17.90
2022-09-22T18:05:20.084Z,17.70
2022-09-22T18:07:50.500Z,17.70
2022-09-22T18:10:20.763Z,17.50
2022-09-22T18:12:47.885Z,17.30
2022-09-22T18:15:17.170Z,17.00
2022-09-22T18:17:44.428Z,16.80
2022-09-22T18:20:17.974Z,16.90
2022-09-22T18:22:47.916Z,16.80
2022-09-22T18:25:19.016Z,16.60
2022-09-22T18:27:48.193Z,16.50
2022-09-22T18:30:17.007Z,16.40
2022-09-22T18:32:44.115Z,16.20
2022-09-22T18:35:13.461Z,16.20
2022-09-22T18:37:40.956Z,16.00
2022-09-22T18:40:09.071Z,15.80
2022-09-22T18:42:36.668Z,15.80
2022-09-22T18:45:04.202Z,15.80
2022-09-22T18:47:31.510Z,15.80
2022-09-22T18:50:38.740Z,15.80
2022-09-22T18:53:39.841Z,15.90
2022-09-22T18:59:51.444Z,15.80
2022-09-22T19:02:23.030Z,15.80
2022-09-22T19:04:53.843Z,15.80
2022-09-22T19:07:42.377Z,15.70
2022-09-22T19:10:13.063Z,15.70
2022-09-22T19:12:40.401Z,16.00
2022-09-22T19:15:13.629Z,16.00
2022-09-22T19:17:43.928Z,16.10
2022-09-22T19:20:14.438Z,16.20
2022-09-22T19:22:42.062Z,16.30
2022-09-22T19:25:09.917Z,16.50
2022-09-22T19:27:39.555Z,16.80
2022-09-22T19:30:08.082Z,16.40
2022-09-22T19:32:35.252Z,16.50
2022-09-22T19:35:02.643Z,16.60
2022-09-22T19:37:29.884Z,16.70
2022-09-22T19:39:57.107Z,16.80
2022-09-22T19:42:24.612Z,16.80
2022-09-22T19:44:51.817Z,16.40
2022-09-22T19:47:20.051Z,16.10
2022-09-22T19:49:47.182Z,16.10
2022-09-22T19:52:14.419Z,16.20
2022-09-22T19:54:41.644Z,16.50
2022-09-22T19:57:08.793Z,16.50
2022-09-22T19:59:36.099Z,16.80
2022-09-22T20:02:04.490Z,16.90
2022-09-22T20:04:34.514Z,16.90
2022-09-22T20:07:03.012Z,16.90
2022-09-22T20:09:30.654Z,17.00
2022-09-22T20:11:58.143Z,17.10
2022-09-22T20:14:27.029Z,17.10
2022-09-22T20:16:55.038Z,17.20
2022-09-22T20:19:23.709Z,17.50
2022-09-22T20:21:51.762Z,17.20
2022-09-22T20:24:21.259Z,17.30
2022-09-22T20:26:48.819Z,17.40
2022-09-22T20:29:17.881Z,17.30
2022-09-22T20:31:45.770Z,17.30
2022-09-22T20:34:15.066Z,17.50
2022-09-22T20:36:43.310Z,17.30
2022-09-22T20:39:15.248Z,17.40
2022-09-22T20:41:43.298Z,17.40
2022-09-22T20:44:14.230Z,17.10
2022-09-22T20:46:46.841Z,17.30
2022-09-22T20:49:15.115Z,16.90
2022-09-22T20:51:42.681Z,17.10
2022-09-22T20:54:10.218Z,16.90
2022-09-22T20:56:41.935Z,17.10
2022-09-22T20:59:10.044Z,17.30
2022-09-22T21:01:37.248Z,17.10
2022-09-22T21:04:04.876Z,17.20
2022-09-22T21:06:32.003Z,17.00
2022-09-22T21:09:18.113Z,17.30
2022-09-22T21:11:45.347Z,17.30
2022-09-22T21:14:12.738Z,17.20
2022-09-22T21:16:40.006Z,17.10
2022-09-22T21:19:08.214Z,17.20
2022-09-22T21:21:37.733Z,17.30
2022-09-22T21:24:05.065Z,17.30
2022-09-22T21:26:32.925Z,17.20
2022-09-22T21:29:00.247Z,17.30
2022-09-22T21:31:27.596Z,17.20
2022-09-22T21:33:54.879Z,17.20
2022-09-22T21:36:23.569Z,17.40
2022-09-22T21:38:58.539Z,17.40
2022-09-22T21:41:27.700Z,17.40
2022-09-22T21:43:55.478Z,17.30
2022-09-22T21:46:25.166Z,17.20
2022-09-22T21:49:01.413Z,17.10
2022-09-22T21:51:34.190Z,17.60
2022-09-22T21:54:05.282Z,17.60
2022-09-22T21:56:33.912Z,17.30
2022-09-22T21:59:03.163Z,17.40
2022-09-22T22:01:32.997Z,17.30
2022-09-22T22:04:01.570Z,17.40
2022-09-22T22:06:31.091Z,17.30
2022-09-22T22:09:01.400Z,17.40
2022-09-22T22:11:34.718Z,17.40
2022-09-22T22:14:03.874Z,17.10
2022-09-22T22:16:45.305Z,17.00
2022-09-22T22:19:18.001Z,17.00
2022-09-22T22:21:46.269Z,17.20
2022-09-22T22:24:18.190Z,16.60
2022-09-22T22:26:47.565Z,17.30
2022-09-22T22:29:15.374Z,17.40
2022-09-22T22:31:43.558Z,17.30
2022-09-22T22:34:12.292Z,17.20
2022-09-22T22:36:40.187Z,17.20
2022-09-22T22:39:07.552Z,17.10
2022-09-22T22:41:34.693Z,16.90
2022-09-22T22:44:02.321Z,16.70
2022-09-22T22:46:29.971Z,16.70
2022-09-22T22:48:57.633Z,17.00
2022-09-22T22:51:25.216Z,17.20
2022-09-22T22:53:55.496Z,17.00
2022-09-22T22:56:25.435Z,16.90
2022-09-22T22:58:53.511Z,17.00
2022-09-22T23:01:22.536Z,16.90
2022-09-22T23:04:09.969Z,17.00
2022-09-22T23:06:39.616Z,17.10
2022-09-22T23:09:09.722Z,17.40
2022-09-22T23:11:39.774Z,17.20
2022-09-22T23:14:09.295Z,17.30
2022-09-22T23:16:43.072Z,17.30
2022-09-22T23:19:13.330Z,17.40
2022-09-22T23:21:40.847Z,17.40
2022-09-22T23:24:08.573Z,17.00
2022-09-22T23:26:37.320Z,16.70
2022-09-22T23:29:04.907Z,16.50
2022-09-22T23:31:32.085Z,16.50
2022-09-22T23:33:59.371Z,16.70
2022-09-22T23:36:28.110Z,16.70
2022-09-22T23:38:57.088Z,16.70
2022-09-22T23:41:24.551Z,16.60
2022-09-22T23:43:51.723Z,16.50
2022-09-22T23:46:20.762Z,16.70
2022-09-22T23:48:48.205Z,16.40
2022-09-22T23:51:15.681Z,16.40
2022-09-22T23:53:42.975Z,16.30
2022-09-22T23:56:10.186Z,16.20
2022-09-22T23:58:38.860Z,16.20
